createdAt,value
2023-05-24T00:02:17.336Z,4.25
2023-05-24T00:04:45.574Z,4.18
2023-05-24T00:07:12.757Z,4.25
2023-05-24T00:09:39.995Z,4.72
2023-05-24T00:12:07.242Z,4.53
2023-05-24T00:14:34.430Z,4.80
2023-05-24T00:17:01.578Z,4.57
2023-05-24T00:19:29.548Z,5.40
2023-05-24T00:21:56.672Z,5.07
2023-05-24T00:24:23.803Z,5.80
2023-05-24T00:26:50.975Z,5.70
2023-05-24T00:29:17.987Z,5.97
2023-05-24T00:31:45.204Z,5.88
2023-05-24T00:34:12.446Z,6.63
2023-05-24T00:36:39.585Z,6.95
2023-05-24T00:39:06.566Z,6.80
2023-05-24T00:41:34.042Z,6.00
2023-05-24T00:44:01.115Z,6.00
2023-05-24T00:46:32.180Z,6.57
2023-05-24T00:49:01.724Z,6.68
2023-05-24T00:51:30.301Z,6.05
2023-05-24T00:53:57.595Z,6.10
2023-05-24T00:56:25.114Z,6.32
2023-05-24T00:58:56.095Z,6.30
2023-05-24T01:01:26.749Z,7.03
2023-05-24T01:03:54.562Z,6.75
2023-05-24T01:06:23.548Z,7.00
2023-05-24T01:09:19.166Z,6.60
2023-05-24T01:12:55.542Z,6.40
2023-05-24T01:15:39.295Z,6.65
2023-05-24T01:18:18.701Z,6.25
2023-05-24T01:20:48.397Z,6.47
2023-05-24T01:23:41.926Z,6.47
2023-05-24T01:29:11.155Z,7.95
2023-05-24T01:31:38.790Z,8.13
2023-05-24T01:34:06.530Z,7.43
2023-05-24T01:36:33.693Z,7.50
2023-05-24T01:39:00.957Z,7.18
2023-05-24T01:41:59.112Z,6.85
2023-05-24T01:44:44.858Z,7.35
2023-05-24T01:47:19.376Z,7.15
2023-05-24T01:49:53.878Z,7.15
2023-05-24T01:52:27.492Z,6.50
2023-05-24T01:54:57.162Z,6.38
2023-05-24T01:57:27.791Z,6.40
2023-05-24T01:59:57.210Z,6.30
2023-05-24T02:02:24.970Z,6.40
2023-05-24T02:04:52.373Z,6.18
2023-05-24T02:07:19.594Z,6.93
2023-05-24T02:09:46.720Z,7.00
2023-05-24T02:12:13.912Z,7.10
2023-05-24T02:14:42.809Z,6.45
2023-05-24T02:17:10.873Z,6.88
2023-05-24T02:19:38.325Z,6.43
2023-05-24T02:22:06.341Z,6.45
2023-05-24T02:24:33.524Z,6.93
2023-05-24T02:27:01.320Z,6.60
2023-05-24T02:29:28.577Z,6.95
2023-05-24T02:31:56.756Z,6.78
2023-05-24T02:34:24.836Z,6.55
2023-05-24T02:36:54.308Z,6.55
2023-05-24T02:39:22.089Z,6.53
2023-05-24T02:41:49.139Z,6.82
2023-05-24T02:44:16.541Z,7.25
2023-05-24T02:46:43.698Z,6.85
2023-05-24T02:49:11.036Z,6.80
2023-05-24T02:51:38.131Z,6.90
2023-05-24T02:54:05.718Z,7.07
2023-05-24T02:56:33.247Z,8.05
2023-05-24T02:59:00.407Z,7.43
2023-05-24T03:01:27.892Z,7.68
2023-05-24T03:03:55.480Z,7.72
2023-05-24T03:06:22.642Z,7.90
2023-05-24T03:08:49.825Z,7.50
2023-05-24T03:11:18.501Z,7.80
2023-05-24T03:13:45.601Z,6.97
2023-05-24T03:16:13.378Z,7.25
2023-05-24T03:18:41.274Z,6.80
2023-05-24T03:21:08.715Z,7.20
2023-05-24T03:23:36.788Z,6.88
2023-05-24T03:26:04.261Z,6.68
2023-05-24T03:28:31.391Z,7.30
2023-05-24T03:30:58.662Z,8.43
2023-05-24T03:33:25.949Z,8.23
2023-05-24T03:35:53.020Z,8.00
2023-05-24T03:38:20.064Z,8.10
2023-05-24T03:40:47.236Z,7.35
2023-05-24T03:43:14.279Z,8.02
2023-05-24T03:45:41.373Z,8.13
2023-05-24T03:48:09.085Z,7.75
2023-05-24T03:50:36.136Z,8.40
2023-05-24T03:53:03.238Z,8.15
2023-05-24T03:55:31.047Z,8.15
2023-05-24T03:57:58.110Z,8.30
2023-05-24T04:00:25.129Z,7.82
2023-05-24T04:02:52.418Z,7.75
2023-05-24T04:05:19.551Z,8.25
2023-05-24T04:07:46.954Z,7.95
2023-05-24T04:10:14.007Z,7.85
2023-05-24T04:12:42.105Z,7.50
2023-05-24T04:15:10.155Z,7.57
2023-05-24T04:17:37.448Z,8.05
2023-05-24T04:20:06.261Z,7.22
2023-05-24T04:22:33.378Z,7.50
2023-05-24T04:25:00.500Z,8.32
2023-05-24T04:27:27.651Z,8.25
2023-05-24T04:29:55.067Z,8.93
2023-05-24T04:32:23.597Z,8.50
2023-05-24T04:34:52.616Z,8.25
2023-05-24T04:37:19.619Z,8.75
2023-05-24T04:39:46.661Z,8.02
2023-05-24T04:42:14.199Z,8.13
2023-05-24T04:44:41.889Z,8.40
2023-05-24T04:47:09.887Z,9.73
2023-05-24T04:49:36.916Z,7.47
2023-05-24T04:52:04.238Z,7.53
2023-05-24T04:54:31.249Z,7.90
2023-05-24T04:56:58.330Z,7.10
2023-05-24T04:59:25.878Z,7.03
2023-05-24T05:01:53.094Z,7.65
2023-05-24T05:04:20.125Z,7.32
2023-05-24T05:06:48.667Z,8.25
2023-05-24T05:09:16.067Z,7.60
2023-05-24T05:11:43.547Z,7.80
2023-05-24T05:14:10.769Z,8.13
2023-05-24T05:16:39.099Z,7.90
2023-05-24T05:19:06.535Z,7.53
2023-05-24T05:21:34.877Z,7.65
2023-05-24T05:24:04.083Z,7.85
2023-05-24T05:26:31.450Z,7.82
2023-05-24T05:28:59.098Z,7.80
2023-05-24T05:31:26.149Z,8.00
2023-05-24T05:33:53.224Z,7.53
2023-05-24T05:36:23.114Z,7.90
2023-05-24T05:38:50.067Z,7.50
2023-05-24T05:41:18.604Z,7.68
2023-05-24T05:43:45.860Z,7.57
2023-05-24T05:46:15.367Z,8.02
2023-05-24T05:48:43.281Z,7.60
2023-05-24T05:51:12.141Z,7.10
2023-05-24T05:53:39.205Z,7.85
2023-05-24T05:56:06.430Z,7.80
2023-05-24T05:58:33.592Z,7.50
2023-05-24T06:01:00.732Z,7.18
2023-05-24T06:03:27.953Z,7.40
2023-05-24T06:05:55.299Z,7.65
2023-05-24T06:08:22.520Z,7.20
2023-05-24T06:10:51.990Z,7.88
2023-05-24T06:13:20.105Z,7.78
2023-05-24T06:15:47.159Z,6.82
2023-05-24T06:18:19.905Z,7.05
2023-05-24T06:20:47.747Z,7.40
2023-05-24T06:23:14.854Z,6.30
2023-05-24T06:25:43.894Z,6.65
2023-05-24T06:28:10.943Z,6.80
2023-05-24T06:30:38.060Z,8.10
2023-05-24T06:33:05.477Z,6.55
2023-05-24T06:35:32.870Z,6.65
2023-05-24T06:38:00.063Z,6.70
2023-05-24T06:40:27.198Z,7.70
2023-05-24T06:42:54.330Z,6.70
2023-05-24T06:45:21.663Z,6.93
2023-05-24T06:47:49.249Z,6.80
2023-05-24T06:50:16.968Z,6.50
2023-05-24T06:52:44.380Z,6.70
2023-05-24T06:55:11.736Z,6.70
2023-05-24T06:57:38.706Z,6.40
2023-05-24T07:00:11.715Z,6.47
2023-05-24T07:05:12.758Z,6.80
2023-05-24T07:07:41.309Z,6.70
2023-05-24T07:10:10.769Z,6.88
2023-05-24T07:12:38.984Z,7.00
2023-05-24T07:15:08.659Z,7.20
2023-05-24T07:17:36.140Z,7.78
2023-05-24T07:20:07.916Z,7.68
2023-05-24T07:22:35.039Z,7.40
2023-05-24T07:25:02.943Z,7.32
2023-05-24T07:27:30.144Z,7.20
2023-05-24T07:29:57.684Z,6.70
2023-05-24T07:32:24.923Z,6.80
2023-05-24T07:34:52.051Z,6.97
2023-05-24T07:37:19.486Z,7.95
2023-05-24T07:39:46.738Z,7.28
2023-05-24T07:42:13.797Z,7.20
2023-05-24T07:44:41.433Z,7.32
2023-05-24T07:47:08.642Z,7.10
2023-05-24T07:49:36.190Z,7.30
2023-05-24T07:52:04.464Z,7.50
2023-05-24T07:54:31.728Z,7.47
2023-05-24T07:56:58.854Z,8.00
2023-05-24T07:59:26.610Z,9.13
2023-05-24T08:01:54.242Z,8.75
2023-05-24T08:04:21.864Z,8.48
2023-05-24T08:06:49.108Z,7.63
2023-05-24T08:09:16.949Z,7.60
2023-05-24T08:11:44.286Z,7.43
2023-05-24T08:14:12.191Z,7.68
2023-05-24T08:16:40.030Z,7.03
2023-05-24T08:19:07.363Z,7.13
2023-05-24T08:21:34.718Z,6.97
2023-05-24T08:24:02.301Z,6.60
2023-05-24T08:26:29.489Z,6.70
2023-05-24T08:28:56.724Z,6.93
2023-05-24T08:31:25.004Z,6.57
2023-05-24T08:33:53.017Z,6.55
2023-05-24T08:36:20.406Z,6.78
2023-05-24T08:38:47.597Z,6.70
2023-05-24T08:41:14.844Z,7.20
2023-05-24T08:43:45.953Z,6.80
2023-05-24T08:46:15.776Z,6.50
2023-05-24T08:48:48.452Z,7.43
2023-05-24T08:51:17.247Z,6.10
2023-05-24T08:53:49.829Z,6.40
2023-05-24T08:56:20.272Z,6.30
2023-05-24T08:58:48.124Z,6.85
2023-05-24T09:01:17.896Z,6.13
2023-05-24T09:03:47.616Z,6.07
2023-05-24T09:06:19.321Z,6.60
2023-05-24T09:08:47.509Z,6.35
2023-05-24T09:11:16.959Z,6.13
2023-05-24T09:13:46.101Z,6.10
2023-05-24T09:16:13.410Z,6.90
2023-05-24T09:18:42.799Z,6.25
2023-05-24T09:21:12.127Z,5.95
2023-05-24T09:23:41.662Z,6.75
2023-05-24T09:26:10.189Z,6.88
2023-05-24T09:28:38.577Z,6.28
2023-05-24T09:31:07.737Z,6.30
2023-05-24T09:33:36.111Z,6.45
2023-05-24T09:36:06.672Z,5.85
2023-05-24T09:38:36.362Z,5.53
2023-05-24T09:41:07.160Z,5.47
2023-05-24T09:43:47.033Z,5.25
2023-05-24T09:46:19.751Z,6.03
2023-05-24T09:51:27.938Z,5.82
2023-05-24T09:53:58.712Z,5.45
2023-05-24T09:56:27.494Z,5.15
2023-05-24T09:58:55.615Z,7.68
2023-05-24T10:01:25.482Z,7.50
2023-05-24T10:03:58.454Z,5.85
2023-05-24T10:06:26.162Z,6.32
2023-05-24T10:08:55.776Z,7.20
2023-05-24T10:11:23.080Z,6.50
2023-05-24T10:13:50.225Z,5.28
2023-05-24T10:16:17.540Z,4.95
2023-05-24T10:18:45.016Z,5.30
2023-05-24T10:21:13.563Z,5.20
2023-05-24T10:23:44.670Z,5.57
2023-05-24T10:26:14.373Z,5.28
2023-05-24T10:28:53.300Z,5.40
2023-05-24T10:31:39.230Z,5.22
2023-05-24T10:34:09.208Z,4.95
2023-05-24T10:36:40.469Z,5.07
2023-05-24T10:39:13.094Z,5.40
2023-05-24T10:41:44.373Z,5.53
2023-05-24T10:44:13.760Z,5.00
2023-05-24T10:47:13.309Z,4.80
2023-05-24T10:49:55.183Z,5.30
2023-05-24T10:52:33.384Z,5.35
2023-05-24T10:55:05.946Z,5.60
2023-05-24T10:57:33.321Z,8.82
2023-05-24T11:03:04.282Z,5.50
2023-05-24T11:05:36.520Z,5.20
2023-05-24T11:08:07.244Z,5.30
2023-05-24T11:10:36.482Z,5.30
2023-05-24T11:13:07.838Z,5.32
2023-05-24T11:15:35.659Z,5.18
2023-05-24T11:18:09.358Z,5.18
2023-05-24T11:20:36.844Z,5.28
2023-05-24T11:23:09.549Z,6.00
2023-05-24T11:25:38.253Z,5.20
2023-05-24T11:28:11.228Z,5.22
2023-05-24T11:30:47.356Z,5.50
2023-05-24T11:33:23.627Z,5.20
2023-05-24T11:35:55.501Z,6.13
2023-05-24T11:38:24.889Z,5.63
2023-05-24T11:40:52.984Z,4.95
2023-05-24T11:43:24.606Z,6.10
2023-05-24T11:45:52.963Z,5.18
2023-05-24T11:48:20.732Z,6.10
2023-05-24T11:50:50.335Z,5.13
2023-05-24T11:53:20.986Z,6.57
2023-05-24T11:55:48.936Z,5.38
2023-05-24T11:58:29.813Z,4.95
2023-05-24T12:00:57.149Z,5.60
2023-05-24T12:03:24.871Z,5.28
2023-05-24T12:05:53.050Z,5.38
2023-05-24T12:08:20.528Z,5.53
2023-05-24T12:10:50.882Z,5.20
2023-05-24T12:13:26.236Z,5.32
2023-05-24T12:15:58.151Z,9.15
2023-05-24T12:18:26.749Z,5.33
2023-05-24T12:20:54.534Z,5.78
2023-05-24T12:23:25.694Z,5.47
2023-05-24T12:26:01.977Z,5.28
2023-05-24T12:28:36.315Z,5.40
2023-05-24T12:31:05.510Z,5.60
2023-05-24T12:33:33.478Z,5.70
2023-05-24T12:36:01.658Z,8.13
2023-05-24T12:38:31.853Z,8.00
2023-05-24T12:41:12.435Z,6.45
2023-05-24T12:43:42.159Z,5.65
2023-05-24T12:46:09.246Z,6.00
2023-05-24T12:48:37.364Z,5.82
2023-05-24T12:51:04.380Z,8.00
2023-05-24T12:53:31.562Z,5.53
2023-05-24T12:56:00.749Z,5.82
2023-05-24T12:58:28.149Z,8.05
2023-05-24T13:00:55.514Z,11.15
2023-05-24T13:03:23.031Z,7.05
2023-05-24T13:05:50.302Z,6.20
2023-05-24T13:08:17.799Z,6.30
2023-05-24T13:10:45.046Z,6.03
2023-05-24T13:13:12.362Z,6.47
2023-05-24T13:15:39.357Z,6.63
2023-05-24T13:18:06.785Z,6.43
2023-05-24T13:20:34.044Z,5.80
2023-05-24T13:23:01.535Z,8.52
2023-05-24T13:25:29.415Z,6.70
2023-05-24T13:27:56.418Z,6.50
2023-05-24T13:30:30.492Z,6.88
2023-05-24T13:32:59.472Z,7.93
2023-05-24T13:35:26.806Z,7.15
2023-05-24T13:37:54.900Z,6.70
2023-05-24T13:40:24.998Z,6.82
2023-05-24T13:42:53.897Z,6.07
2023-05-24T13:45:21.642Z,5.70
2023-05-24T13:47:48.822Z,6.07
2023-05-24T13:50:16.054Z,6.80
2023-05-24T13:52:43.550Z,6.30
2023-05-24T13:55:11.336Z,6.57
2023-05-24T14:00:09.486Z,7.60
2023-05-24T14:02:37.307Z,6.57
2023-05-24T14:05:24.995Z,7.32
2023-05-24T14:07:53.419Z,6.10
2023-05-24T14:10:21.674Z,7.25
2023-05-24T14:13:03.554Z,7.45
2023-05-24T14:15:37.383Z,9.98
2023-05-24T14:18:08.247Z,7.90
2023-05-24T14:20:38.169Z,7.00
2023-05-24T14:23:07.711Z,7.40
2023-05-24T14:25:35.434Z,6.80
2023-05-24T14:28:03.822Z,16.10
2023-05-24T14:30:33.977Z,9.52
2023-05-24T14:33:01.350Z,6.47
2023-05-24T14:35:28.625Z,6.65
2023-05-24T14:37:56.515Z,6.45
2023-05-24T14:40:23.942Z,6.22
2023-05-24T14:42:52.151Z,6.15
2023-05-24T14:45:19.319Z,6.28
2023-05-24T14:47:46.345Z,6.57
2023-05-24T14:50:14.013Z,6.88
2023-05-24T14:52:42.421Z,7.18
2023-05-24T14:55:10.640Z,7.45
2023-05-24T14:57:37.756Z,7.25
2023-05-24T15:00:05.348Z,7.35
2023-05-24T15:02:34.258Z,6.68
2023-05-24T15:05:02.274Z,6.80
2023-05-24T15:07:29.885Z,7.60
2023-05-24T15:09:57.873Z,6.68
2023-05-24T15:12:24.940Z,6.40
2023-05-24T15:14:52.258Z,6.38
2023-05-24T15:17:22.100Z,7.07
2023-05-24T15:19:50.576Z,7.28
2023-05-24T15:22:17.718Z,7.53
2023-05-24T15:24:46.724Z,7.18
2023-05-24T15:27:14.137Z,13.80
2023-05-24T15:29:48.565Z,15.50
2023-05-24T15:32:15.951Z,7.13
2023-05-24T15:34:43.220Z,7.72
2023-05-24T15:37:10.607Z,7.50
2023-05-24T15:39:37.751Z,9.68
2023-05-24T15:42:06.281Z,20.27
2023-05-24T15:44:33.437Z,12.57
2023-05-24T15:47:01.109Z,10.80
2023-05-24T15:49:28.595Z,7.50
2023-05-24T15:52:03.105Z,6.78
2023-05-24T15:54:31.723Z,7.20
2023-05-24T15:57:00.687Z,7.53
2023-05-24T15:59:28.761Z,7.32
2023-05-24T16:01:56.691Z,7.40
2023-05-24T16:04:23.904Z,7.55
2023-05-24T16:06:51.247Z,7.50
2023-05-24T16:09:18.379Z,7.10
2023-05-24T16:11:47.507Z,7.22
2023-05-24T16:14:15.890Z,7.03
2023-05-24T16:16:46.197Z,7.05
2023-05-24T16:19:13.380Z,7.13
2023-05-24T16:21:40.582Z,7.20
2023-05-24T16:24:08.503Z,7.53
2023-05-24T16:26:35.875Z,7.80
2023-05-24T16:29:03.328Z,8.05
2023-05-24T16:31:31.652Z,8.27
2023-05-24T16:34:01.354Z,7.97
2023-05-24T16:36:30.564Z,7.45
2023-05-24T16:38:57.782Z,7.93
2023-05-24T16:41:24.980Z,7.85
2023-05-24T16:43:52.219Z,7.55
2023-05-24T16:46:19.323Z,7.28
2023-05-24T16:48:47.331Z,7.20
2023-05-24T16:51:16.527Z,6.97
2023-05-24T16:53:43.733Z,7.55
2023-05-24T16:56:10.962Z,7.15
2023-05-24T16:58:38.326Z,7.30
2023-05-24T17:01:05.578Z,7.75
2023-05-24T17:03:32.911Z,9.27
2023-05-24T17:06:05.473Z,8.05
2023-05-24T17:08:37.257Z,7.88
2023-05-24T17:11:05.624Z,7.28
2023-05-24T17:13:34.724Z,7.32
2023-05-24T17:16:04.119Z,7.13
2023-05-24T17:18:31.582Z,7.70
2023-05-24T17:21:03.045Z,7.45
2023-05-24T17:23:34.895Z,7.60
2023-05-24T17:26:02.951Z,7.80
2023-05-24T17:28:31.160Z,8.00
2023-05-24T17:31:01.067Z,8.02
2023-05-24T17:33:32.398Z,8.77
2023-05-24T17:36:04.297Z,9.05
2023-05-24T17:38:37.425Z,8.98
2023-05-24T17:43:34.451Z,8.90
2023-05-24T17:46:03.986Z,9.75
2023-05-24T17:48:39.008Z,9.60
2023-05-24T17:51:09.113Z,10.70
2023-05-24T17:53:38.246Z,12.13
2023-05-24T17:56:06.894Z,8.52
2023-05-24T17:58:37.218Z,8.55
2023-05-24T18:01:06.268Z,8.68
2023-05-24T18:03:37.078Z,7.45
2023-05-24T18:06:07.024Z,7.85
2023-05-24T18:08:37.774Z,7.07
2023-05-24T18:11:08.669Z,8.18
2023-05-24T18:13:39.058Z,7.70
2023-05-24T18:16:09.666Z,7.88
2023-05-24T18:18:40.939Z,6.97
2023-05-24T18:21:09.693Z,7.43
2023-05-24T18:23:38.225Z,9.05
2023-05-24T18:26:10.522Z,7.78
2023-05-24T18:28:39.572Z,8.13
2023-05-24T18:31:10.481Z,8.15
2023-05-24T18:33:38.641Z,9.13
2023-05-24T18:36:06.267Z,9.23
2023-05-24T18:38:35.485Z,8.88
2023-05-24T18:41:05.935Z,9.52
2023-05-24T18:43:33.736Z,11.77
2023-05-24T18:46:01.439Z,9.65
2023-05-24T18:48:29.260Z,9.32
2023-05-24T18:50:56.592Z,9.77
2023-05-24T18:53:23.614Z,8.75
2023-05-24T18:55:51.050Z,9.55
2023-05-24T18:58:18.004Z,9.40
2023-05-24T19:00:45.147Z,8.50
2023-05-24T19:03:13.256Z,8.45
2023-05-24T19:05:43.541Z,7.97
2023-05-24T19:08:11.652Z,8.20
2023-05-24T19:10:38.836Z,7.28
2023-05-24T19:13:07.215Z,8.02
2023-05-24T19:15:37.456Z,7.75
2023-05-24T19:18:04.857Z,7.10
2023-05-24T19:20:32.085Z,7.10
2023-05-24T19:22:59.489Z,7.45
2023-05-24T19:25:26.825Z,7.20
2023-05-24T19:27:59.906Z,6.65
2023-05-24T19:30:28.025Z,7.70
2023-05-24T19:32:55.332Z,7.05
2023-05-24T19:35:22.514Z,8.40
2023-05-24T19:37:49.577Z,8.75
2023-05-24T19:40:16.843Z,7.63
2023-05-24T19:42:43.897Z,8.05
2023-05-24T19:45:12.087Z,8.30
2023-05-24T19:47:39.852Z,8.80
2023-05-24T19:50:08.048Z,9.75
2023-05-24T19:52:35.045Z,8.70
2023-05-24T19:55:02.213Z,9.52
2023-05-24T19:57:29.356Z,9.27
2023-05-24T19:59:56.693Z,9.15
2023-05-24T20:02:23.909Z,9.02
2023-05-24T20:04:51.448Z,9.52
2023-05-24T20:07:18.561Z,8.82
2023-05-24T20:09:45.977Z,9.05
2023-05-24T20:12:12.978Z,10.05
2023-05-24T20:14:39.992Z,10.05
2023-05-24T20:17:07.009Z,9.73
2023-05-24T20:19:34.114Z,9.52
2023-05-24T20:22:01.349Z,9.68
2023-05-24T20:24:28.595Z,10.50
2023-05-24T20:26:56.127Z,9.95
2023-05-24T20:29:24.100Z,10.05
2023-05-24T20:31:51.159Z,10.15
2023-05-24T20:34:18.204Z,10.25
2023-05-24T20:36:45.691Z,10.85
2023-05-24T20:39:12.807Z,9.77
2023-05-24T20:41:40.061Z,10.15
2023-05-24T20:44:07.330Z,10.43
2023-05-24T20:46:34.525Z,10.02
2023-05-24T20:49:01.623Z,10.63
2023-05-24T20:51:28.834Z,10.32
2023-05-24T20:53:56.068Z,10.27
2023-05-24T20:56:23.402Z,10.55
2023-05-24T20:58:53.070Z,10.40
2023-05-24T21:01:21.129Z,10.27
2023-05-24T21:03:48.624Z,10.85
2023-05-24T21:06:16.009Z,10.32
2023-05-24T21:08:43.882Z,10.90
2023-05-24T21:11:11.137Z,10.55
2023-05-24T21:13:38.251Z,12.00
2023-05-24T21:16:05.823Z,12.25
2023-05-24T21:18:33.465Z,12.52
2023-05-24T21:21:00.992Z,12.98
2023-05-24T21:23:28.290Z,13.18
2023-05-24T21:25:55.354Z,12.48
2023-05-24T21:28:22.861Z,12.38
2023-05-24T21:30:50.116Z,12.50
2023-05-24T21:33:17.317Z,12.73
2023-05-24T21:35:44.853Z,11.82
2023-05-24T21:38:12.109Z,11.00
2023-05-24T21:40:39.180Z,11.52
2023-05-24T21:43:09.812Z,11.07
2023-05-24T21:45:37.072Z,11.63
2023-05-24T21:48:04.523Z,11.32
2023-05-24T21:50:32.243Z,11.13
2023-05-24T21:52:59.517Z,11.57
2023-05-24T21:55:26.987Z,11.23
2023-05-24T21:57:54.167Z,11.13
2023-05-24T22:00:21.865Z,10.80
2023-05-24T22:02:49.202Z,11.55
2023-05-24T22:05:16.728Z,10.95
2023-05-24T22:07:43.828Z,11.43
2023-05-24T22:10:12.249Z,12.38
2023-05-24T22:12:39.485Z,11.90
2023-05-24T22:15:07.408Z,11.80
2023-05-24T22:17:36.924Z,11.80
2023-05-24T22:20:06.142Z,12.55
2023-05-24T22:22:33.466Z,12.50
2023-05-24T22:25:01.982Z,12.48
2023-05-24T22:27:29.804Z,12.30
2023-05-24T22:29:56.927Z,12.25
2023-05-24T22:32:24.013Z,12.73
2023-05-24T22:34:51.131Z,12.70
2023-05-24T22:37:18.220Z,13.00
2023-05-24T22:39:45.462Z,12.18
2023-05-24T22:42:12.688Z,12.60
2023-05-24T22:44:39.741Z,13.55
2023-05-24T22:47:08.090Z,12.98
2023-05-24T22:49:35.845Z,12.85
2023-05-24T22:52:02.864Z,13.15
2023-05-24T22:54:29.951Z,14.27
2023-05-24T22:56:57.255Z,12.77
2023-05-24T22:59:24.705Z,13.15
2023-05-24T23:01:52.358Z,13.02
2023-05-24T23:04:21.553Z,13.02
2023-05-24T23:06:53.258Z,12.93
2023-05-24T23:09:34.552Z,12.85
2023-05-24T23:12:07.659Z,14.00
2023-05-24T23:14:39.638Z,13.50
2023-05-24T23:17:14.757Z,14.10
2023-05-24T23:19:43.904Z,15.15
2023-05-24T23:22:23.978Z,13.85
2023-05-24T23:24:51.292Z,15.25
2023-05-24T23:27:18.697Z,15.32
2023-05-24T23:29:45.792Z,14.50
2023-05-24T23:32:13.156Z,14.55
2023-05-24T23:34:40.224Z,15.18
2023-05-24T23:37:07.866Z,15.82
2023-05-24T23:39:34.928Z,15.85
2023-05-24T23:42:02.696Z,16.25
2023-05-24T23:44:30.158Z,15.65
2023-05-24T23:46:57.960Z,16.23
2023-05-24T23:49:26.050Z,16.50
2023-05-24T23:51:53.291Z,16.10
2023-05-24T23:54:20.390Z,17.42
2023-05-24T23:56:47.748Z,16.00
2023-05-24T23:59:17.004Z,16.42
